You are not logged in, Click here to log in
ICAO: RJAA Country: 日本千葉縣成田市
Latitude: 35.772 Longitude: 140.393
Total Arrivals: 157 Total Departures: 148
Latest Arrival: JL781 (PHNL-RJAA)CHUANYI. Lin Latest Departure: MM318 (RJAA-RJBB)CHU. CHUHAO
Scenery:
METAR : RJAA 220400Z 04011KT 360V070 9999 SCT020 BKN180 25/20 Q1017 NOSIG RMK 3CU020 7AC180 A3006

成田国際空港NRT